sensor_id;sensor_type;location;lat;lon;timestamp;temperature;humidity
20654;DHT22;21083;50.898;4.902;2024-01-27T00:01:22;5.00;99.90
20654;DHT22;21083;50.898;4.902;2024-01-27T00:03:49;5.00;99.90
20654;DHT22;21083;50.898;4.902;2024-01-27T00:06:17;4.90;99.90
20654;DHT22;21083;50.898;4.902;2024-01-27T00:08:44;4.90;99.90
20654;DHT22;21083;50.898;4.902;2024-01-27T00:11:11;4.90;99.90
20654;DHT22;21083;50.898;4.902;2024-01-27T00:13:38;4.90;99.90
20654;DHT22;21083;50.898;4.902;2024-01-27T00:16:06;4.80;99.90
20654;DHT22;21083;50.898;4.902;2024-01-27T00:18:35;4.70;99.90
20654;DHT22;21083;50.898;4.902;2024-01-27T00:21:04;4.70;99.90
20654;DHT22;21083;50.898;4.902;2024-01-27T00:23:32;4.80;99.90
20654;DHT22;21083;50.898;4.902;2024-01-27T00:26:00;4.70;99.90
20654;DHT22;21083;50.898;4.902;2024-01-27T00:28:27;4.70;99.90
20654;DHT22;21083;50.898;4.902;2024-01-27T00:30:54;4.50;99.90
20654;DHT22;21083;50.898;4.902;2024-01-27T00:33:22;4.50;99.90
20654;DHT22;21083;50.898;4.902;2024-01-27T00:35:51;4.60;99.90
20654;DHT22;21083;50.898;4.902;2024-01-27T00:38:18;4.60;99.90
20654;DHT22;21083;50.898;4.902;2024-01-27T00:40:45;4.40;99.90
20654;DHT22;21083;50.898;4.902;2024-01-27T00:43:12;4.50;99.90
20654;DHT22;21083;50.898;4.902;2024-01-27T00:45:39;4.40;99.90
20654;DHT22;21083;50.898;4.902;2024-01-27T00:48:06;4.40;99.90
20654;DHT22;21083;50.898;4.902;2024-01-27T00:50:34;4.40;99.90
20654;DHT22;21083;50.898;4.902;2024-01-27T00:53:02;4.40;99.90
20654;DHT22;21083;50.898;4.902;2024-01-27T00:55:29;4.30;99.90
20654;DHT22;21083;50.898;4.902;2024-01-27T00:57:56;4.30;99.90
20654;DHT22;21083;50.898;4.902;2024-01-27T01:00:23;4.40;99.90
20654;DHT22;21083;50.898;4.902;2024-01-27T01:02:50;4.50;99.90
20654;DHT22;21083;50.898;4.902;2024-01-27T01:05:18;4.50;99.90
20654;DHT22;21083;50.898;4.902;2024-01-27T01:07:47;4.50;99.90
20654;DHT22;21083;50.898;4.902;2024-01-27T01:10:16;4.50;99.90
20654;DHT22;21083;50.898;4.902;2024-01-27T01:12:43;4.40;99.90
20654;DHT22;21083;50.898;4.902;2024-01-27T01:15:10;4.40;99.90
20654;DHT22;21083;50.898;4.902;2024-01-27T01:17:37;4.40;99.90
20654;DHT22;21083;50.898;4.902;2024-01-27T01:20:05;4.40;99.90
20654;DHT22;21083;50.898;4.902;2024-01-27T01:22:32;4.40;99.90
20654;DHT22;21083;50.898;4.902;2024-01-27T01:24:59;4.50;99.90
20654;DHT22;21083;50.898;4.902;2024-01-27T01:27:27;4.60;99.90
20654;DHT22;21083;50.898;4.902;2024-01-27T01:29:54;4.40;99.90
20654;DHT22;21083;50.898;4.902;2024-01-27T01:32:22;4.40;99.90
20654;DHT22;21083;50.898;4.902;2024-01-27T01:34:49;4.30;99.90
20654;DHT22;21083;50.898;4.902;2024-01-27T01:37:16;4.30;99.90
20654;DHT22;21083;50.898;4.902;2024-01-27T01:39:43;4.40;99.90
20654;DHT22;21083;50.898;4.902;2024-01-27T01:42:10;4.40;99.90
20654;DHT22;21083;50.898;4.902;2024-01-27T01:44:39;4.40;99.90
20654;DHT22;21083;50.898;4.902;2024-01-27T01:47:07;4.50;99.90
20654;DHT22;21083;50.898;4.902;2024-01-27T01:49:37;4.50;99.90
20654;DHT22;21083;50.898;4.902;2024-01-27T01:52:06;4.40;99.90
20654;DHT22;21083;50.898;4.902;2024-01-27T01:54:33;4.40;99.90
20654;DHT22;21083;50.898;4.902;2024-01-27T01:57:01;4.40;99.90
20654;DHT22;21083;50.898;4.902;2024-01-27T01:59:28;4.40;99.90
20654;DHT22;21083;50.898;4.902;2024-01-27T02:01:58;4.50;99.90
20654;DHT22;21083;50.898;4.902;2024-01-27T02:04:26;4.50;99.90
20654;DHT22;21083;50.898;4.902;2024-01-27T02:06:53;4.40;99.90
20654;DHT22;21083;50.898;4.902;2024-01-27T02:09:20;4.50;99.90
20654;DHT22;21083;50.898;4.902;2024-01-27T02:11:47;4.60;99.90
20654;DHT22;21083;50.898;4.902;2024-01-27T02:14:14;4.40;99.90
20654;DHT22;21083;50.898;4.902;2024-01-27T02:16:42;4.40;99.90
20654;DHT22;21083;50.898;4.902;2024-01-27T02:19:13;4.30;99.90
20654;DHT22;21083;50.898;4.902;2024-01-27T02:21:41;4.30;99.90
20654;DHT22;21083;50.898;4.902;2024-01-27T02:24:09;4.20;99.90
20654;DHT22;21083;50.898;4.902;2024-01-27T02:26:37;4.20;99.90
20654;DHT22;21083;50.898;4.902;2024-01-27T02:29:04;4.40;99.90
20654;DHT22;21083;50.898;4.902;2024-01-27T02:31:32;4.30;99.90
20654;DHT22;21083;50.898;4.902;2024-01-27T02:33:59;4.20;99.90
20654;DHT22;21083;50.898;4.902;2024-01-27T02:36:26;4.20;99.90
20654;DHT22;21083;50.898;4.902;2024-01-27T02:38:53;4.20;99.90
20654;DHT22;21083;50.898;4.902;2024-01-27T02:41:22;4.20;99.90
20654;DHT22;21083;50.898;4.902;2024-01-27T02:43:49;4.20;99.90
20654;DHT22;21083;50.898;4.902;2024-01-27T02:46:16;4.20;99.90
20654;DHT22;21083;50.898;4.902;2024-01-27T02:48:44;4.00;99.90
20654;DHT22;21083;50.898;4.902;2024-01-27T02:51:11;4.00;99.90
20654;DHT22;21083;50.898;4.902;2024-01-27T02:53:39;4.00;99.90
20654;DHT22;21083;50.898;4.902;2024-01-27T02:56:07;4.00;99.90
20654;DHT22;21083;50.898;4.902;2024-01-27T02:58:36;4.10;99.90
20654;DHT22;21083;50.898;4.902;2024-01-27T03:01:03;4.10;99.90
20654;DHT22;21083;50.898;4.902;2024-01-27T03:03:31;4.10;99.90
20654;DHT22;21083;50.898;4.902;2024-01-27T03:05:59;4.10;99.90
20654;DHT22;21083;50.898;4.902;2024-01-27T03:08:26;3.90;99.90
20654;DHT22;21083;50.898;4.902;2024-01-27T03:10:53;3.90;99.90
20654;DHT22;21083;50.898;4.902;2024-01-27T03:13:20;4.00;99.90
20654;DHT22;21083;50.898;4.902;2024-01-27T03:15:48;3.90;99.90
20654;DHT22;21083;50.898;4.902;2024-01-27T03:18:15;4.00;99.90
20654;DHT22;21083;50.898;4.902;2024-01-27T03:20:43;4.00;99.90
20654;DHT22;21083;50.898;4.902;2024-01-27T03:23:10;4.00;99.90
20654;DHT22;21083;50.898;4.902;2024-01-27T03:25:37;4.00;99.90
20654;DHT22;21083;50.898;4.902;2024-01-27T03:28:04;3.90;99.90
20654;DHT22;21083;50.898;4.902;2024-01-27T03:30:31;3.90;99.90
20654;DHT22;21083;50.898;4.902;2024-01-27T03:33:00;3.90;99.90
20654;DHT22;21083;50.898;4.902;2024-01-27T03:35:28;3.90;99.90
20654;DHT22;21083;50.898;4.902;2024-01-27T03:37:55;3.80;99.90
20654;DHT22;21083;50.898;4.902;2024-01-27T03:40:22;3.80;99.90
20654;DHT22;21083;50.898;4.902;2024-01-27T03:42:49;3.80;99.90
20654;DHT22;21083;50.898;4.902;2024-01-27T03:45:16;3.80;99.90
20654;DHT22;21083;50.898;4.902;2024-01-27T03:47:43;3.80;99.90
20654;DHT22;21083;50.898;4.902;2024-01-27T03:50:13;3.80;99.90
20654;DHT22;21083;50.898;4.902;2024-01-27T03:52:41;3.80;99.90
20654;DHT22;21083;50.898;4.902;2024-01-27T03:55:08;3.80;99.90
20654;DHT22;21083;50.898;4.902;2024-01-27T03:57:35;3.80;99.90
20654;DHT22;21083;50.898;4.902;2024-01-27T04:00:03;3.80;99.90
20654;DHT22;21083;50.898;4.902;2024-01-27T04:02:30;3.70;99.90
20654;DHT22;21083;50.898;4.902;2024-01-27T04:04:57;3.70;99.90
20654;DHT22;21083;50.898;4.902;2024-01-27T04:07:26;3.70;99.90
20654;DHT22;21083;50.898;4.902;2024-01-27T04:09:53;3.70;99.90
20654;DHT22;21083;50.898;4.902;2024-01-27T04:12:20;3.70;99.90
20654;DHT22;21083;50.898;4.902;2024-01-27T04:14:47;3.70;99.90
20654;DHT22;21083;50.898;4.902;2024-01-27T04:17:14;3.70;99.90
20654;DHT22;21083;50.898;4.902;2024-01-27T04:19:41;3.70;99.90
20654;DHT22;21083;50.898;4.902;2024-01-27T04:22:08;3.70;99.90
20654;DHT22;21083;50.898;4.902;2024-01-27T04:24:37;3.60;99.90
20654;DHT22;21083;50.898;4.902;2024-01-27T04:27:04;3.60;99.90
20654;DHT22;21083;50.898;4.902;2024-01-27T04:29:31;3.70;99.90
20654;DHT22;21083;50.898;4.902;2024-01-27T04:31:58;3.60;99.90
20654;DHT22;21083;50.898;4.902;2024-01-27T04:34:25;3.50;99.90
20654;DHT22;21083;50.898;4.902;2024-01-27T04:36:52;3.50;99.90
20654;DHT22;21083;50.898;4.902;2024-01-27T04:39:19;3.50;99.90
20654;DHT22;21083;50.898;4.902;2024-01-27T04:41:48;3.50;99.90
20654;DHT22;21083;50.898;4.902;2024-01-27T04:44:15;3.50;99.90
20654;DHT22;21083;50.898;4.902;2024-01-27T04:46:42;3.50;99.90
20654;DHT22;21083;50.898;4.902;2024-01-27T04:49:09;3.50;99.90
20654;DHT22;21083;50.898;4.902;2024-01-27T04:51:36;3.50;99.90
20654;DHT22;21083;50.898;4.902;2024-01-27T04:54:04;3.50;99.90
20654;DHT22;21083;50.898;4.902;2024-01-27T04:56:31;3.50;99.90
20654;DHT22;21083;50.898;4.902;2024-01-27T04:58:59;3.50;99.90
20654;DHT22;21083;50.898;4.902;2024-01-27T05:01:26;3.50;99.90
20654;DHT22;21083;50.898;4.902;2024-01-27T05:03:53;3.50;99.90
20654;DHT22;21083;50.898;4.902;2024-01-27T05:06:20;3.50;99.90
20654;DHT22;21083;50.898;4.902;2024-01-27T05:08:47;3.50;99.90
20654;DHT22;21083;50.898;4.902;2024-01-27T05:11:15;3.50;99.90
20654;DHT22;21083;50.898;4.902;2024-01-27T05:13:43;3.50;99.90
20654;DHT22;21083;50.898;4.902;2024-01-27T05:16:11;3.50;99.90
20654;DHT22;21083;50.898;4.902;2024-01-27T05:18:38;3.50;99.90
20654;DHT22;21083;50.898;4.902;2024-01-27T05:21:05;3.50;99.90
20654;DHT22;21083;50.898;4.902;2024-01-27T05:23:32;3.50;99.90
20654;DHT22;21083;50.898;4.902;2024-01-27T05:26:00;3.50;99.90
20654;DHT22;21083;50.898;4.902;2024-01-27T05:28:27;3.50;99.90
20654;DHT22;21083;50.898;4.902;2024-01-27T05:30:54;3.50;99.90
20654;DHT22;21083;50.898;4.902;2024-01-27T05:33:23;3.50;99.90
20654;DHT22;21083;50.898;4.902;2024-01-27T05:35:50;3.50;99.90
20654;DHT22;21083;50.898;4.902;2024-01-27T05:38:17;3.50;99.90
20654;DHT22;21083;50.898;4.902;2024-01-27T05:40:44;3.40;99.90
20654;DHT22;21083;50.898;4.902;2024-01-27T05:43:11;3.40;99.90
20654;DHT22;21083;50.898;4.902;2024-01-27T05:45:38;3.40;99.90
20654;DHT22;21083;50.898;4.902;2024-01-27T05:48:07;3.40;99.90
20654;DHT22;21083;50.898;4.902;2024-01-27T05:50:35;3.40;99.90
20654;DHT22;21083;50.898;4.902;2024-01-27T05:53:03;3.40;99.90
20654;DHT22;21083;50.898;4.902;2024-01-27T05:55:31;3.40;99.90
20654;DHT22;21083;50.898;4.902;2024-01-27T05:58:00;3.40;99.90
20654;DHT22;21083;50.898;4.902;2024-01-27T06:00:27;3.30;99.90
20654;DHT22;21083;50.898;4.902;2024-01-27T06:02:54;3.40;99.90
20654;DHT22;21083;50.898;4.902;2024-01-27T06:05:21;3.40;99.90
20654;DHT22;21083;50.898;4.902;2024-01-27T06:07:50;3.40;99.90
20654;DHT22;21083;50.898;4.902;2024-01-27T06:10:17;3.30;99.90
20654;DHT22;21083;50.898;4.902;2024-01-27T06:12:44;3.40;99.90
20654;DHT22;21083;50.898;4.902;2024-01-27T06:15:12;3.30;99.90
20654;DHT22;21083;50.898;4.902;2024-01-27T06:17:41;3.30;99.90
20654;DHT22;21083;50.898;4.902;2024-01-27T06:20:09;3.30;99.90
20654;DHT22;21083;50.898;4.902;2024-01-27T06:22:37;3.40;99.90
20654;DHT22;21083;50.898;4.902;2024-01-27T06:25:08;3.30;99.90
20654;DHT22;21083;50.898;4.902;2024-01-27T06:27:36;3.30;99.90
20654;DHT22;21083;50.898;4.902;2024-01-27T06:30:04;3.20;99.90
20654;DHT22;21083;50.898;4.902;2024-01-27T06:32:33;3.20;99.90
20654;DHT22;21083;50.898;4.902;2024-01-27T06:35:00;3.20;99.90
20654;DHT22;21083;50.898;4.902;2024-01-27T06:37:28;3.20;99.90
20654;DHT22;21083;50.898;4.902;2024-01-27T06:39:55;3.10;99.90
20654;DHT22;21083;50.898;4.902;2024-01-27T06:42:23;3.10;99.90
20654;DHT22;21083;50.898;4.902;2024-01-27T06:44:51;3.10;99.90
20654;DHT22;21083;50.898;4.902;2024-01-27T06:47:18;3.00;99.90
20654;DHT22;21083;50.898;4.902;2024-01-27T06:49:47;3.00;99.90
20654;DHT22;21083;50.898;4.902;2024-01-27T06:52:14;2.90;99.90
20654;DHT22;21083;50.898;4.902;2024-01-27T06:54:41;2.90;99.90
20654;DHT22;21083;50.898;4.902;2024-01-27T06:57:18;3.00;99.90
20654;DHT22;21083;50.898;4.902;2024-01-27T06:59:47;3.00;99.90
20654;DHT22;21083;50.898;4.902;2024-01-27T07:02:22;2.90;99.90
20654;DHT22;21083;50.898;4.902;2024-01-27T07:04:49;3.00;99.90
20654;DHT22;21083;50.898;4.902;2024-01-27T07:07:16;2.90;99.90
20654;DHT22;21083;50.898;4.902;2024-01-27T07:09:43;2.90;99.90
20654;DHT22;21083;50.898;4.902;2024-01-27T07:12:10;2.90;99.90
20654;DHT22;21083;50.898;4.902;2024-01-27T07:14:37;3.00;99.90
20654;DHT22;21083;50.898;4.902;2024-01-27T07:17:05;3.00;99.90
20654;DHT22;21083;50.898;4.902;2024-01-27T07:19:32;3.00;99.90
20654;DHT22;21083;50.898;4.902;2024-01-27T07:22:00;3.00;99.90
20654;DHT22;21083;50.898;4.902;2024-01-27T07:24:29;3.00;99.90
20654;DHT22;21083;50.898;4.902;2024-01-27T07:26:57;3.00;99.90
20654;DHT22;21083;50.898;4.902;2024-01-27T07:29:25;3.00;99.90
20654;DHT22;21083;50.898;4.902;2024-01-27T07:31:52;3.10;99.90
20654;DHT22;21083;50.898;4.902;2024-01-27T07:34:20;3.10;99.90
20654;DHT22;21083;50.898;4.902;2024-01-27T07:36:47;3.10;99.90
20654;DHT22;21083;50.898;4.902;2024-01-27T07:39:15;3.10;99.90
20654;DHT22;21083;50.898;4.902;2024-01-27T07:41:42;3.10;99.90
20654;DHT22;21083;50.898;4.902;2024-01-27T07:44:10;3.20;99.90
20654;DHT22;21083;50.898;4.902;2024-01-27T07:46:37;3.20;99.90
20654;DHT22;21083;50.898;4.902;2024-01-27T07:49:05;3.20;99.90
20654;DHT22;21083;50.898;4.902;2024-01-27T07:51:34;3.10;99.90
20654;DHT22;21083;50.898;4.902;2024-01-27T07:54:01;3.20;99.90
20654;DHT22;21083;50.898;4.902;2024-01-27T07:56:28;3.20;99.90
20654;DHT22;21083;50.898;4.902;2024-01-27T07:58:55;3.20;99.90
20654;DHT22;21083;50.898;4.902;2024-01-27T08:01:22;3.20;99.90
20654;DHT22;21083;50.898;4.902;2024-01-27T08:03:49;3.30;99.90
20654;DHT22;21083;50.898;4.902;2024-01-27T08:06:18;3.30;99.90
20654;DHT22;21083;50.898;4.902;2024-01-27T08:08:48;3.20;99.90
20654;DHT22;21083;50.898;4.902;2024-01-27T08:11:15;3.20;99.90
20654;DHT22;21083;50.898;4.902;2024-01-27T08:13:43;3.20;99.90
20654;DHT22;21083;50.898;4.902;2024-01-27T08:16:12;3.30;99.90
20654;DHT22;21083;50.898;4.902;2024-01-27T08:18:41;3.40;99.90
20654;DHT22;21083;50.898;4.902;2024-01-27T08:21:10;3.30;99.90
20654;DHT22;21083;50.898;4.902;2024-01-27T08:23:37;3.40;99.90
20654;DHT22;21083;50.898;4.902;2024-01-27T08:26:06;3.50;99.90
20654;DHT22;21083;50.898;4.902;2024-01-27T08:28:34;3.60;99.90
20654;DHT22;21083;50.898;4.902;2024-01-27T08:31:01;3.60;99.90
20654;DHT22;21083;50.898;4.902;2024-01-27T08:33:28;3.60;99.90
20654;DHT22;21083;50.898;4.902;2024-01-27T08:35:55;3.60;99.90
20654;DHT22;21083;50.898;4.902;2024-01-27T08:38:22;3.70;99.90
20654;DHT22;21083;50.898;4.902;2024-01-27T08:40:50;3.70;99.90
20654;DHT22;21083;50.898;4.902;2024-01-27T08:43:19;3.80;99.90
20654;DHT22;21083;50.898;4.902;2024-01-27T08:45:46;3.90;99.90
20654;DHT22;21083;50.898;4.902;2024-01-27T08:48:13;3.90;99.90
20654;DHT22;21083;50.898;4.902;2024-01-27T08:50:40;3.90;99.90
20654;DHT22;21083;50.898;4.902;2024-01-27T08:53:08;3.90;99.90
20654;DHT22;21083;50.898;4.902;2024-01-27T08:55:35;4.00;99.90
20654;DHT22;21083;50.898;4.902;2024-01-27T08:58:02;4.10;99.90
20654;DHT22;21083;50.898;4.902;2024-01-27T09:00:30;4.20;99.90
20654;DHT22;21083;50.898;4.902;2024-01-27T09:02:57;4.20;99.90
20654;DHT22;21083;50.898;4.902;2024-01-27T09:05:24;4.30;99.90
20654;DHT22;21083;50.898;4.902;2024-01-27T09:07:53;4.40;99.90
20654;DHT22;21083;50.898;4.902;2024-01-27T09:10:20;4.60;99.90
20654;DHT22;21083;50.898;4.902;2024-01-27T09:12:47;4.70;99.90
20654;DHT22;21083;50.898;4.902;2024-01-27T09:15:14;4.70;99.90
20654;DHT22;21083;50.898;4.902;2024-01-27T09:17:43;4.60;99.90
20654;DHT22;21083;50.898;4.902;2024-01-27T09:20:11;4.70;99.90
20654;DHT22;21083;50.898;4.902;2024-01-27T09:22:38;4.70;99.90
20654;DHT22;21083;50.898;4.902;2024-01-27T09:25:08;4.90;99.90
20654;DHT22;21083;50.898;4.902;2024-01-27T09:27:35;4.90;99.90
20654;DHT22;21083;50.898;4.902;2024-01-27T09:30:02;4.90;99.90
20654;DHT22;21083;50.898;4.902;2024-01-27T09:32:30;5.00;99.90
20654;DHT22;21083;50.898;4.902;2024-01-27T09:34:59;5.20;99.90
20654;DHT22;21083;50.898;4.902;2024-01-27T09:37:26;5.20;99.90
20654;DHT22;21083;50.898;4.902;2024-01-27T09:39:53;5.30;99.90
20654;DHT22;21083;50.898;4.902;2024-01-27T09:42:20;5.30;99.90
20654;DHT22;21083;50.898;4.902;2024-01-27T09:44:49;5.30;99.90
20654;DHT22;21083;50.898;4.902;2024-01-27T09:47:16;5.40;99.90
20654;DHT22;21083;50.898;4.902;2024-01-27T09:49:43;5.50;99.90
20654;DHT22;21083;50.898;4.902;2024-01-27T09:52:12;5.50;99.90
20654;DHT22;21083;50.898;4.902;2024-01-27T09:54:40;5.70;99.90
20654;DHT22;21083;50.898;4.902;2024-01-27T09:57:08;5.80;99.90
20654;DHT22;21083;50.898;4.902;2024-01-27T09:59:41;6.00;99.90
20654;DHT22;21083;50.898;4.902;2024-01-27T10:02:11;6.00;99.90
20654;DHT22;21083;50.898;4.902;2024-01-27T10:04:41;5.90;99.90
20654;DHT22;21083;50.898;4.902;2024-01-27T10:07:08;6.10;99.90
20654;DHT22;21083;50.898;4.902;2024-01-27T10:09:37;6.00;99.90
20654;DHT22;21083;50.898;4.902;2024-01-27T10:12:08;6.20;99.90
20654;DHT22;21083;50.898;4.902;2024-01-27T10:14:39;6.10;99.90
20654;DHT22;21083;50.898;4.902;2024-01-27T10:17:10;6.10;99.90
20654;DHT22;21083;50.898;4.902;2024-01-27T10:19:37;6.20;99.90
20654;DHT22;21083;50.898;4.902;2024-01-27T10:22:04;6.30;99.90
20654;DHT22;21083;50.898;4.902;2024-01-27T10:24:32;6.50;99.90
20654;DHT22;21083;50.898;4.902;2024-01-27T10:27:02;6.60;99.90
20654;DHT22;21083;50.898;4.902;2024-01-27T10:29:29;6.60;99.90
20654;DHT22;21083;50.898;4.902;2024-01-27T10:32:06;6.70;99.90
20654;DHT22;21083;50.898;4.902;2024-01-27T10:34:33;6.80;99.90
20654;DHT22;21083;50.898;4.902;2024-01-27T10:37:00;6.90;99.90
20654;DHT22;21083;50.898;4.902;2024-01-27T10:39:27;7.10;99.90
20654;DHT22;21083;50.898;4.902;2024-01-27T10:41:54;7.30;99.90
20654;DHT22;21083;50.898;4.902;2024-01-27T10:44:23;7.30;99.90
20654;DHT22;21083;50.898;4.902;2024-01-27T10:46:52;7.40;99.90
20654;DHT22;21083;50.898;4.902;2024-01-27T10:49:20;7.60;99.90
20654;DHT22;21083;50.898;4.902;2024-01-27T10:51:53;7.70;99.90
20654;DHT22;21083;50.898;4.902;2024-01-27T10:54:24;7.70;99.90
20654;DHT22;21083;50.898;4.902;2024-01-27T10:56:53;7.90;99.90
20654;DHT22;21083;50.898;4.902;2024-01-27T10:59:23;7.90;99.90
20654;DHT22;21083;50.898;4.902;2024-01-27T11:01:52;8.00;99.90
20654;DHT22;21083;50.898;4.902;2024-01-27T11:04:21;8.00;99.90
20654;DHT22;21083;50.898;4.902;2024-01-27T11:06:48;8.10;99.90
20654;DHT22;21083;50.898;4.902;2024-01-27T11:09:16;8.20;99.90
20654;DHT22;21083;50.898;4.902;2024-01-27T11:11:45;8.40;99.90
20654;DHT22;21083;50.898;4.902;2024-01-27T11:14:12;8.50;99.90
20654;DHT22;21083;50.898;4.902;2024-01-27T11:16:41;8.70;99.90
20654;DHT22;21083;50.898;4.902;2024-01-27T11:19:12;8.80;99.90
20654;DHT22;21083;50.898;4.902;2024-01-27T11:21:39;8.90;99.90
20654;DHT22;21083;50.898;4.902;2024-01-27T11:24:14;8.80;99.90
20654;DHT22;21083;50.898;4.902;2024-01-27T11:26:41;9.10;99.90
20654;DHT22;21083;50.898;4.902;2024-01-27T11:29:09;9.10;99.90
20654;DHT22;21083;50.898;4.902;2024-01-27T11:31:46;9.20;99.90
20654;DHT22;21083;50.898;4.902;2024-01-27T11:34:14;9.50;99.90
20654;DHT22;21083;50.898;4.902;2024-01-27T11:36:43;9.60;99.90
20654;DHT22;21083;50.898;4.902;2024-01-27T11:39:24;9.80;99.90
20654;DHT22;21083;50.898;4.902;2024-01-27T11:41:52;10.10;99.90
20654;DHT22;21083;50.898;4.902;2024-01-27T11:44:19;10.00;99.90
20654;DHT22;21083;50.898;4.902;2024-01-27T11:46:48;10.00;99.90
20654;DHT22;21083;50.898;4.902;2024-01-27T11:49:16;10.10;99.90
20654;DHT22;21083;50.898;4.902;2024-01-27T11:51:44;10.40;99.90
20654;DHT22;21083;50.898;4.902;2024-01-27T11:54:11;10.70;99.90
20654;DHT22;21083;50.898;4.902;2024-01-27T11:56:38;10.70;99.90
20654;DHT22;21083;50.898;4.902;2024-01-27T11:59:06;10.40;99.90
20654;DHT22;21083;50.898;4.902;2024-01-27T12:01:33;10.10;99.90
20654;DHT22;21083;50.898;4.902;2024-01-27T12:04:03;10.60;99.90
20654;DHT22;21083;50.898;4.902;2024-01-27T12:06:30;11.10;99.90
20654;DHT22;21083;50.898;4.902;2024-01-27T12:08:57;11.40;99.90
20654;DHT22;21083;50.898;4.902;2024-01-27T12:11:25;11.40;99.90
20654;DHT22;21083;50.898;4.902;2024-01-27T12:13:52;11.20;99.90
20654;DHT22;21083;50.898;4.902;2024-01-27T12:16:21;11.10;99.90
20654;DHT22;21083;50.898;4.902;2024-01-27T12:18:52;11.20;99.90
20654;DHT22;21083;50.898;4.902;2024-01-27T12:21:20;11.00;99.90
20654;DHT22;21083;50.898;4.902;2024-01-27T12:23:51;10.90;99.90
20654;DHT22;21083;50.898;4.902;2024-01-27T12:26:20;10.70;99.90
20654;DHT22;21083;50.898;4.902;2024-01-27T12:28:48;10.30;99.90
20654;DHT22;21083;50.898;4.902;2024-01-27T12:31:15;10.20;99.90
20654;DHT22;21083;50.898;4.902;2024-01-27T12:33:49;10.20;99.90
20654;DHT22;21083;50.898;4.902;2024-01-27T12:36:18;10.10;99.90
20654;DHT22;21083;50.898;4.902;2024-01-27T12:38:57;10.00;99.90
20654;DHT22;21083;50.898;4.902;2024-01-27T12:41:24;10.20;99.90
20654;DHT22;21083;50.898;4.902;2024-01-27T12:43:52;10.70;99.90
20654;DHT22;21083;50.898;4.902;2024-01-27T12:46:19;10.60;99.90
20654;DHT22;21083;50.898;4.902;2024-01-27T12:48:46;10.40;99.90
20654;DHT22;21083;50.898;4.902;2024-01-27T12:51:13;10.50;99.90
20654;DHT22;21083;50.898;4.902;2024-01-27T12:53:41;10.60;99.90
20654;DHT22;21083;50.898;4.902;2024-01-27T12:56:11;11.00;99.90
20654;DHT22;21083;50.898;4.902;2024-01-27T12:58:38;11.20;99.90
20654;DHT22;21083;50.898;4.902;2024-01-27T13:01:06;11.30;99.90
20654;DHT22;21083;50.898;4.902;2024-01-27T13:03:34;11.40;99.90
20654;DHT22;21083;50.898;4.902;2024-01-27T13:06:02;11.70;99.90
20654;DHT22;21083;50.898;4.902;2024-01-27T13:08:29;11.70;99.90
20654;DHT22;21083;50.898;4.902;2024-01-27T13:10:56;11.80;99.90
20654;DHT22;21083;50.898;4.902;2024-01-27T13:13:24;12.00;99.90
20654;DHT22;21083;50.898;4.902;2024-01-27T13:15:51;12.00;99.90
20654;DHT22;21083;50.898;4.902;2024-01-27T13:18:18;11.90;99.90
20654;DHT22;21083;50.898;4.902;2024-01-27T13:20:46;12.10;99.90
20654;DHT22;21083;50.898;4.902;2024-01-27T13:23:13;12.60;99.90
20654;DHT22;21083;50.898;4.902;2024-01-27T13:25:40;13.00;99.90
20654;DHT22;21083;50.898;4.902;2024-01-27T13:28:07;12.80;99.90
20654;DHT22;21083;50.898;4.902;2024-01-27T13:30:38;13.10;99.90
20654;DHT22;21083;50.898;4.902;2024-01-27T13:33:05;13.30;99.90
20654;DHT22;21083;50.898;4.902;2024-01-27T13:35:32;13.70;99.90
20654;DHT22;21083;50.898;4.902;2024-01-27T13:37:59;14.00;99.90
20654;DHT22;21083;50.898;4.902;2024-01-27T13:40:26;14.20;99.90
20654;DHT22;21083;50.898;4.902;2024-01-27T13:42:53;14.20;99.90
20654;DHT22;21083;50.898;4.902;2024-01-27T13:45:21;14.20;99.90
20654;DHT22;21083;50.898;4.902;2024-01-27T13:47:49;14.00;99.90
20654;DHT22;21083;50.898;4.902;2024-01-27T13:50:16;14.10;99.90
20654;DHT22;21083;50.898;4.902;2024-01-27T13:52:43;14.40;99.90
20654;DHT22;21083;50.898;4.902;2024-01-27T13:55:11;14.70;99.90
20654;DHT22;21083;50.898;4.902;2024-01-27T13:57:38;15.10;99.90
20654;DHT22;21083;50.898;4.902;2024-01-27T14:00:07;15.80;99.90
20654;DHT22;21083;50.898;4.902;2024-01-27T14:02:35;16.20;99.90
20654;DHT22;21083;50.898;4.902;2024-01-27T14:05:04;16.50;99.90
20654;DHT22;21083;50.898;4.902;2024-01-27T14:07:32;16.40;99.90
20654;DHT22;21083;50.898;4.902;2024-01-27T14:09:59;16.50;99.90
20654;DHT22;21083;50.898;4.902;2024-01-27T14:12:27;16.40;99.90
20654;DHT22;21083;50.898;4.902;2024-01-27T14:15:02;16.10;99.90
20654;DHT22;21083;50.898;4.902;2024-01-27T14:17:30;15.60;99.90
20654;DHT22;21083;50.898;4.902;2024-01-27T14:19:57;15.80;99.90
20654;DHT22;21083;50.898;4.902;2024-01-27T14:22:26;16.20;99.90
20654;DHT22;21083;50.898;4.902;2024-01-27T14:24:53;16.50;99.90
20654;DHT22;21083;50.898;4.902;2024-01-27T14:27:21;16.80;99.90
20654;DHT22;21083;50.898;4.902;2024-01-27T14:29:52;17.20;99.90
20654;DHT22;21083;50.898;4.902;2024-01-27T14:32:19;17.70;99.90
20654;DHT22;21083;50.898;4.902;2024-01-27T14:34:47;18.40;99.90
20654;DHT22;21083;50.898;4.902;2024-01-27T14:37:15;18.80;99.90
20654;DHT22;21083;50.898;4.902;2024-01-27T14:39:44;19.30;99.90
20654;DHT22;21083;50.898;4.902;2024-01-27T14:42:12;19.70;99.90
20654;DHT22;21083;50.898;4.902;2024-01-27T14:44:39;20.20;99.90
20654;DHT22;21083;50.898;4.902;2024-01-27T14:47:09;20.30;99.90
20654;DHT22;21083;50.898;4.902;2024-01-27T14:49:36;20.60;99.90
20654;DHT22;21083;50.898;4.902;2024-01-27T14:52:04;20.60;99.90
20654;DHT22;21083;50.898;4.902;2024-01-27T14:54:32;20.60;99.90
20654;DHT22;21083;50.898;4.902;2024-01-27T14:57:01;20.50;99.90
20654;DHT22;21083;50.898;4.902;2024-01-27T14:59:29;20.10;99.90
20654;DHT22;21083;50.898;4.902;2024-01-27T15:01:56;19.40;99.90
20654;DHT22;21083;50.898;4.902;2024-01-27T15:04:24;19.10;99.90
20654;DHT22;21083;50.898;4.902;2024-01-27T15:06:53;18.80;99.90
20654;DHT22;21083;50.898;4.902;2024-01-27T15:09:20;18.30;99.90
20654;DHT22;21083;50.898;4.902;2024-01-27T15:11:48;17.80;99.90
20654;DHT22;21083;50.898;4.902;2024-01-27T15:14:17;17.20;99.90
20654;DHT22;21083;50.898;4.902;2024-01-27T15:16:44;16.50;99.90
20654;DHT22;21083;50.898;4.902;2024-01-27T15:19:12;16.00;99.90
20654;DHT22;21083;50.898;4.902;2024-01-27T15:21:39;15.40;99.90
20654;DHT22;21083;50.898;4.902;2024-01-27T15:24:06;14.90;99.90
20654;DHT22;21083;50.898;4.902;2024-01-27T15:26:34;14.40;99.90
20654;DHT22;21083;50.898;4.902;2024-01-27T15:29:02;14.10;99.90
20654;DHT22;21083;50.898;4.902;2024-01-27T15:31:30;13.60;99.90
20654;DHT22;21083;50.898;4.902;2024-01-27T15:33:57;13.20;99.90
20654;DHT22;21083;50.898;4.902;2024-01-27T15:36:24;13.10;99.90
20654;DHT22;21083;50.898;4.902;2024-01-27T15:38:51;12.80;99.90
20654;DHT22;21083;50.898;4.902;2024-01-27T15:41:18;12.60;99.90
20654;DHT22;21083;50.898;4.902;2024-01-27T15:43:45;12.30;99.90
20654;DHT22;21083;50.898;4.902;2024-01-27T15:46:15;12.00;99.90